createdAt,value
2018-10-05T00:01:45.452Z,10.1
2018-10-05T00:18:24.108Z,10.1
2018-10-05T00:35:02.588Z,10.1
2018-10-05T00:51:41.734Z,9.8
2018-10-05T01:08:19.291Z,9.8
2018-10-05T01:24:57.631Z,9.8
2018-10-05T01:41:36.290Z,9.4
2018-10-05T01:58:14.577Z,9.4
2018-10-05T02:14:52.076Z,9.1
2018-10-05T02:31:29.952Z,9.1
2018-10-05T02:48:07.979Z,9.1
2018-10-05T03:04:45.674Z,8.8
2018-10-05T03:21:23.402Z,8.8
2018-10-05T03:38:01.025Z,8.8
2018-10-05T03:54:38.779Z,8.8
2018-10-05T04:11:16.235Z,8.5
2018-10-05T04:27:53.783Z,8.8
2018-10-05T04:44:31.706Z,8.5
2018-10-05T05:01:08.852Z,8.5
2018-10-05T05:17:46.254Z,8.5
2018-10-05T05:34:23.756Z,8.5
2018-10-05T05:51:01.051Z,8.5
2018-10-05T06:07:38.557Z,8.5
2018-10-05T06:24:16.331Z,8.5
2018-10-05T06:40:54.305Z,8.8
2018-10-05T06:57:31.445Z,9.4
2018-10-05T07:14:10.792Z,10.1
2018-10-05T07:30:49.229Z,10.7
2018-10-05T07:47:28.865Z,11.4
2018-10-05T08:00:48.956Z,12.0
2018-10-05T08:14:09.449Z,12.6
2018-10-05T08:20:49.962Z,13.3
2018-10-05T08:30:50.967Z,13.9
2018-10-05T08:44:12.840Z,14.6
2018-10-05T08:57:35.375Z,15.2
2018-10-05T09:14:18.241Z,15.5
2018-10-05T09:27:40.938Z,16.2
2018-10-05T09:44:29.036Z,16.8
2018-10-05T10:01:10.582Z,17.4
2018-10-05T10:17:54.872Z,17.8
2018-10-05T10:31:18.946Z,18.4
2018-10-05T10:44:43.589Z,18.7
2018-10-05T10:58:09.283Z,19.0
2018-10-05T11:15:01.190Z,19.4
2018-10-05T11:31:42.045Z,19.7
2018-10-05T11:41:47.954Z,20.0
2018-10-05T11:58:35.510Z,20.6
2018-10-05T12:15:22.150Z,20.6
2018-10-05T12:32:09.422Z,21.0
2018-10-05T12:48:57.405Z,21.0
2018-10-05T13:05:45.563Z,21.3
2018-10-05T13:22:33.571Z,21.3
2018-10-05T13:39:22.677Z,21.3
2018-10-05T13:56:10.603Z,21.3
2018-10-05T14:12:59.823Z,21.6
2018-10-05T14:29:48.274Z,21.3
2018-10-05T14:46:36.145Z,21.3
2018-10-05T15:03:24.773Z,21.3
2018-10-05T15:20:13.302Z,21.0
2018-10-05T15:37:00.499Z,20.3
2018-10-05T15:53:48.705Z,20.0
2018-10-05T16:10:35.113Z,19.7
2018-10-05T16:27:23.065Z,19.4
2018-10-05T16:44:08.999Z,18.7
2018-10-05T17:00:54.085Z,18.1
2018-10-05T17:14:18.378Z,17.4
2018-10-05T17:31:03.300Z,17.1
2018-10-05T17:41:06.387Z,16.5
2018-10-05T17:57:49.868Z,16.2
2018-10-05T18:14:33.542Z,15.5
2018-10-05T18:31:23.673Z,15.2
2018-10-05T18:47:59.794Z,14.9
2018-10-05T19:04:43.902Z,14.9
2018-10-05T19:21:25.483Z,14.6
2018-10-05T19:38:07.906Z,14.2
2018-10-05T19:54:50.332Z,13.9
2018-10-05T20:11:31.338Z,13.6
2018-10-05T20:28:14.095Z,13.3
2018-10-05T20:44:55.320Z,13.0
2018-10-05T21:01:35.710Z,13.0
2018-10-05T21:18:19.622Z,12.6
2018-10-05T21:34:57.544Z,12.3
2018-10-05T21:51:38.384Z,12.3
2018-10-05T22:08:19.115Z,12.3
2018-10-05T22:25:00.476Z,12.0
2018-10-05T22:41:40.958Z,12.0
2018-10-05T22:58:20.421Z,12.0
2018-10-05T23:15:00.160Z,12.0
2018-10-05T23:31:40.476Z,11.7
2018-10-05T23:48:19.716Z,11.7
